Time;durP1;ratioP1;P1;durP2;ratioP2;P2;SDS_P1;SDS_P2;PMS_P1;PMS_P2;Temp;Humidity;BMP_temperature;BMP_pressure;BME280_temperature;BME280_humidity;BME280_pressure;Samples;Min_cycle;Max_cycle;Signal;HPM_P1;HPM_P2
2023/05/22 00:00:17;;;;;;;9.20;5.50;;;;;;;14.15;56.06;98098.36;106741;1278;22635;-85
2023/05/22 00:03:05;;;;;;;9.40;4.80;;;;;;;14.14;56.14;98097.11;106948;1278;22519;-85
2023/05/22 00:05:39;;;;;;;6.90;4.90;;;;;;;14.12;56.08;98099.23;106938;1278;22607;-85
2023/05/22 00:08:10;;;;;;;8.00;5.00;;;;;;;14.11;56.09;98094.38;106823;1278;25617;-86
2023/05/22 00:10:39;;;;;;;5.40;4.40;;;;;;;14.09;56.10;98090.73;106893;1278;26583;-85
2023/05/22 00:13:07;;;;;;;10.90;4.90;;;;;;;14.07;56.15;98089.02;106929;1278;22521;-84
2023/05/22 00:15:35;;;;;;;7.20;4.30;;;;;;;14.02;56.19;98086.61;106913;1278;22682;-85
2023/05/22 00:18:05;;;;;;;6.70;4.70;;;;;;;13.97;56.26;98083.45;106848;1278;22589;-85
2023/05/22 00:20:37;;;;;;;5.60;4.90;;;;;;;13.92;56.15;98085.13;106739;1278;22907;-86
2023/05/22 00:23:09;;;;;;;7.40;4.90;;;;;;;13.84;56.34;98089.83;106926;1278;22633;-84
2023/05/22 00:25:39;;;;;;;8.70;5.00;;;;;;;13.80;56.36;98087.08;106814;1278;22523;-86
2023/05/22 00:28:07;;;;;;;5.60;4.50;;;;;;;13.75;56.33;98079.55;106812;1278;24378;-85
2023/05/22 00:30:36;;;;;;;6.40;4.30;;;;;;;13.67;56.63;98079.48;106724;1278;22606;-84
2023/05/22 00:33:05;;;;;;;6.80;4.80;;;;;;;13.58;56.75;98079.14;106757;1278;24216;-85
2023/05/22 00:35:33;;;;;;;5.90;4.40;;;;;;;13.48;56.64;98074.84;106793;1278;22999;-84
2023/05/22 00:38:03;;;;;;;6.90;4.60;;;;;;;13.39;57.02;98073.40;106573;1278;25703;-85
2023/05/22 00:40:31;;;;;;;5.40;4.70;;;;;;;13.31;56.86;98072.33;106614;1278;24254;-86
2023/05/22 00:42:59;;;;;;;7.20;5.10;;;;;;;13.21;57.18;98073.80;106612;1278;23183;-85
2023/05/22 00:45:27;;;;;;;6.40;5.00;;;;;;;13.12;57.12;98075.49;106638;1278;26517;-85
2023/05/22 00:47:55;;;;;;;6.80;4.90;;;;;;;13.05;57.05;98069.56;106568;1278;25628;-83
2023/05/22 00:50:24;;;;;;;6.80;5.30;;;;;;;12.97;57.31;98071.24;106625;1278;22580;-84
2023/05/22 00:52:52;;;;;;;6.50;5.20;;;;;;;12.89;57.70;98071.31;106825;1278;22561;-92
2023/05/22 00:55:20;;;;;;;8.10;4.50;;;;;;;12.83;57.45;98067.48;107434;1278;24419;-90
2023/05/22 00:57:50;;;;;;;6.20;4.70;;;;;;;12.78;57.58;98070.52;106733;1278;25526;-91
2023/05/22 01:00:19;;;;;;;7.90;5.60;;;;;;;12.71;57.75;98071.66;106839;1278;22535;-91
2023/05/22 01:02:47;;;;;;;14.90;5.30;;;;;;;12.64;58.21;98070.52;106662;1278;22776;-89
2023/05/22 01:05:16;;;;;;;6.30;5.00;;;;;;;12.60;58.28;98068.27;106674;1275;22555;-87
2023/05/22 01:07:45;;;;;;;6.00;4.80;;;;;;;12.53;58.14;98066.86;106692;1278;22647;-89
2023/05/22 01:10:13;;;;;;;9.60;4.90;;;;;;;12.45;58.64;98063.21;106517;1257;25550;-89
2023/05/22 01:12:49;;;;;;;11.90;5.40;;;;;;;12.35;58.37;98061.50;106698;1278;22551;-89
2023/05/22 01:15:28;;;;;;;6.40;5.10;;;;;;;12.27;58.78;98058.27;106848;1278;22660;-91
2023/05/22 01:18:18;;;;;;;7.40;5.20;;;;;;;12.21;58.77;98057.06;106645;1278;22528;-91
2023/05/22 01:20:56;;;;;;;8.00;5.20;;;;;;;12.13;58.85;98049.84;106712;1278;23926;-89
2023/05/22 01:23:47;;;;;;;6.90;5.60;;;;;;;12.06;59.04;98045.00;106840;1278;22594;-89
2023/05/22 01:27:00;;;;;;;6.60;5.30;;;;;;;12.00;59.47;98044.54;106797;1278;22562;-90
2023/05/22 01:29:37;;;;;;;6.30;5.40;;;;;;;11.96;59.82;98042.29;106696;1278;25579;-89
2023/05/22 01:32:08;;;;;;;8.50;5.20;;;;;;;11.93;59.74;98042.77;106763;1278;24215;-90
2023/05/22 01:34:38;;;;;;;7.90;5.30;;;;;;;11.90;59.96;98043.02;106616;1278;22536;-87
2023/05/22 01:37:08;;;;;;;10.00;5.20;;;;;;;11.88;59.94;98044.84;106637;1278;22560;-91
2023/05/22 01:39:37;;;;;;;6.00;5.40;;;;;;;11.86;60.22;98044.55;106780;1278;25990;-89
2023/05/22 01:42:06;;;;;;;7.10;4.90;;;;;;;11.84;60.33;98044.58;107106;1278;22561;-89
2023/05/22 01:44:34;;;;;;;7.20;5.50;;;;;;;11.80;60.14;98044.38;107202;1278;26674;-90
2023/05/22 01:47:04;;;;;;;5.50;4.60;;;;;;;11.80;60.13;98046.44;107580;1278;24251;-88
2023/05/22 01:49:35;;;;;;;6.90;5.20;;;;;;;11.78;60.05;98043.50;106622;1278;24092;-90
2023/05/22 01:52:40;;;;;;;7.90;5.20;;;;;;;11.76;60.48;98038.23;106775;1278;25472;-91
2023/05/22 01:55:19;;;;;;;11.00;5.20;;;;;;;11.76;60.35;98038.91;106680;1278;22655;-89
2023/05/22 01:58:02;;;;;;;7.10;5.00;;;;;;;11.73;60.40;98037.45;106645;1278;24436;-89
2023/05/22 02:00:32;;;;;;;9.30;5.10;;;;;;;11.71;60.30;98038.95;106670;1278;25395;-88
2023/05/22 02:03:08;;;;;;;7.30;4.90;;;;;;;11.70;60.68;98041.41;106650;1278;22528;-89
2023/05/22 02:05:38;;;;;;;8.20;4.70;;;;;;;11.69;60.45;98044.29;106994;1278;23571;-85
2023/05/22 02:08:09;;;;;;;7.50;4.90;;;;;;;11.68;60.58;98045.94;106664;1278;23523;-89
2023/05/22 02:10:42;;;;;;;6.00;4.90;;;;;;;11.66;60.56;98044.39;106577;1278;22610;-88
2023/05/22 02:13:10;;;;;;;11.00;5.00;;;;;;;11.65;60.53;98040.92;106597;1278;22518;-89
2023/05/22 02:15:39;;;;;;;9.90;5.20;;;;;;;11.63;60.61;98042.04;106619;1275;22636;-88
2023/05/22 02:18:14;;;;;;;6.50;5.10;;;;;;;11.60;60.64;98040.74;106618;1278;22612;-88
2023/05/22 02:20:45;;;;;;;7.20;5.70;;;;;;;11.57;60.62;98043.60;106647;1278;22599;-88
2023/05/22 02:23:13;;;;;;;6.00;5.10;;;;;;;11.55;60.72;98044.68;106578;1278;26589;-89
2023/05/22 02:25:41;;;;;;;7.80;5.10;;;;;;;11.52;60.74;98041.83;106631;1271;26744;-88
2023/05/22 02:28:10;;;;;;;8.10;5.50;;;;;;;11.49;60.82;98044.11;106564;1278;24768;-89
2023/05/22 02:30:38;;;;;;;8.10;5.40;;;;;;;11.45;60.91;98043.30;106757;1278;22611;-88
2023/05/22 02:33:08;;;;;;;6.30;5.40;;;;;;;11.42;60.97;98042.73;106759;1278;22530;-87
2023/05/22 02:35:36;;;;;;;8.10;5.90;;;;;;;11.39;60.91;98043.73;106674;1278;22540;-89
2023/05/22 02:38:04;;;;;;;10.00;6.80;;;;;;;11.37;61.10;98047.46;106557;1278;22682;-88
2023/05/22 02:40:32;;;;;;;19.30;6.70;;;;;;;11.35;61.16;98044.59;106664;1278;24449;-90
2023/05/22 02:43:00;;;;;;;10.70;6.00;;;;;;;11.34;61.24;98041.38;106563;1278;22514;-90
2023/05/22 02:45:30;;;;;;;12.40;6.00;;;;;;;11.34;61.42;98040.67;106771;1278;22572;-89
2023/05/22 02:48:00;;;;;;;15.80;7.00;;;;;;;11.33;61.74;98042.36;106717;1278;25361;-89
2023/05/22 02:50:29;;;;;;;14.10;7.20;;;;;;;11.32;62.47;98038.56;106655;1278;22621;-88
2023/05/22 02:52:57;;;;;;;14.10;7.40;;;;;;;11.26;62.49;98040.08;106749;1278;22646;-91
2023/05/22 02:55:25;;;;;;;15.00;7.40;;;;;;;11.18;62.45;98039.57;108628;1278;24291;-93
2023/05/22 02:57:53;;;;;;;11.90;7.70;;;;;;;11.11;62.59;98039.77;108178;1278;22681;-89
2023/05/22 03:00:21;;;;;;;13.20;6.80;;;;;;;11.07;62.66;98042.22;106705;1278;22650;-89
2023/05/22 03:02:51;;;;;;;13.30;6.80;;;;;;;11.03;62.91;98043.25;106686;1272;22689;-91
2023/05/22 03:05:19;;;;;;;11.60;7.10;;;;;;;11.00;62.86;98046.17;106718;1278;23304;-90
2023/05/22 03:07:47;;;;;;;10.70;7.50;;;;;;;10.96;63.04;98048.07;106647;1278;26160;-90
2023/05/22 03:10:16;;;;;;;12.40;10.20;;;;;;;10.92;63.22;98048.37;106699;1278;25249;-91
2023/05/22 03:13:35;;;;;;;15.40;12.00;;;;;;;10.86;63.01;98044.37;106691;1275;22585;-89
2023/05/22 03:16:03;;;;;;;12.30;10.90;;;;;;;10.76;63.19;98039.75;106705;1278;22577;-89
2023/05/22 03:18:32;;;;;;;12.30;6.60;;;;;;;10.68;63.22;98038.38;106672;1259;22528;-89
2023/05/22 03:21:00;;;;;;;8.70;6.30;;;;;;;10.62;63.51;98038.86;106624;1257;25726;-90
2023/05/22 03:23:28;;;;;;;7.00;5.40;;;;;;;10.62;63.76;98039.09;106611;1278;25316;-89
2023/05/22 03:25:56;;;;;;;9.60;5.10;;;;;;;10.63;64.38;98038.88;106831;1278;22524;-90
2023/05/22 03:29:20;;;;;;;8.80;5.10;;;;;;;10.67;65.22;98039.63;107010;1278;22524;-92
2023/05/22 03:31:49;;;;;;;6.30;5.20;;;;;;;10.68;64.63;98040.05;106891;1278;23326;-90
2023/05/22 03:34:17;;;;;;;6.60;5.30;;;;;;;10.71;65.52;98036.82;106967;1278;22528;-90
2023/05/22 03:36:49;;;;;;;9.60;5.70;;;;;;;10.73;65.56;98032.73;108559;1278;22621;-91
2023/05/22 03:39:17;;;;;;;6.70;5.00;;;;;;;10.75;65.56;98033.02;108157;1278;23296;-92
2023/05/22 03:41:53;;;;;;;7.40;5.60;;;;;;;10.79;65.66;98031.02;106754;1269;25349;-93
2023/05/22 03:44:23;;;;;;;10.30;5.20;;;;;;;10.84;65.78;98030.83;106721;1278;23130;-91
2023/05/22 03:46:51;;;;;;;6.90;5.30;;;;;;;10.89;65.39;98030.61;106684;1278;24133;-91
2023/05/22 03:49:19;;;;;;;10.80;5.00;;;;;;;10.96;65.36;98033.90;106701;1278;22541;-90
2023/05/22 03:51:47;;;;;;;6.80;5.20;;;;;;;11.02;65.27;98036.61;106811;1278;22533;-92
2023/05/22 03:54:16;;;;;;;7.20;4.90;;;;;;;11.07;65.01;98038.21;106730;1278;22529;-87
2023/05/22 03:56:44;;;;;;;5.80;5.20;;;;;;;11.14;65.09;98039.45;106635;1257;24381;-88
2023/05/22 03:59:12;;;;;;;6.10;4.80;;;;;;;11.21;64.91;98039.64;106643;1278;22638;-87
2023/05/22 04:01:40;;;;;;;7.70;5.40;;;;;;;11.29;64.88;98040.17;106653;1269;25473;-86
2023/05/22 04:04:11;;;;;;;6.80;5.70;;;;;;;11.39;64.93;98045.27;106743;1271;24190;-87
2023/05/22 04:06:41;;;;;;;6.30;5.00;;;;;;;11.51;64.89;98044.23;107113;1278;22467;-87
2023/05/22 04:09:14;;;;;;;7.80;5.50;;;;;;;11.62;64.75;98053.94;107035;1278;22532;-90
2023/05/22 04:11:42;;;;;;;8.10;6.10;;;;;;;11.72;64.73;98051.83;106860;1278;22532;-87
2023/05/22 04:14:10;;;;;;;15.40;8.90;;;;;;;11.82;64.52;98049.36;107003;1278;22524;-88
2023/05/22 04:16:38;;;;;;;11.80;9.00;;;;;;;11.91;64.61;98043.04;106964;1278;25969;-87
2023/05/22 04:19:08;;;;;;;8.00;6.40;;;;;;;11.99;64.75;98036.33;106873;1278;22639;-92
2023/05/22 04:21:37;;;;;;;7.50;5.10;;;;;;;12.11;64.74;98034.17;106887;1278;22653;-90
2023/05/22 04:24:08;;;;;;;6.60;5.00;;;;;;;12.25;64.99;98031.99;107374;1278;22590;-93
2023/05/22 04:26:37;;;;;;;7.80;4.70;;;;;;;12.40;65.08;98029.17;107365;1278;22626;-91
2023/05/22 04:29:09;;;;;;;8.80;4.80;;;;;;;12.52;65.04;98031.46;106905;1278;22528;-85
2023/05/22 04:31:37;;;;;;;7.90;5.00;;;;;;;12.63;65.19;98031.30;106610;1278;24547;-84
2023/05/22 04:34:05;;;;;;;5.90;4.80;;;;;;;12.74;64.89;98030.77;106718;1278;22531;-85
2023/05/22 04:36:34;;;;;;;7.70;5.00;;;;;;;12.84;64.83;98027.64;106784;1278;24245;-85
2023/05/22 04:39:03;;;;;;;6.50;4.80;;;;;;;12.94;64.79;98027.77;106715;1278;22535;-85
2023/05/22 04:41:33;;;;;;;8.20;5.10;;;;;;;13.06;64.55;98023.98;107052;1278;22542;-87
2023/05/22 04:44:02;;;;;;;6.60;4.90;;;;;;;13.17;64.63;98022.45;107161;1278;25636;-89
2023/05/22 04:46:33;;;;;;;6.40;5.10;;;;;;;13.27;64.37;98023.59;106784;1278;22535;-90
2023/05/22 04:49:02;;;;;;;8.20;4.40;;;;;;;13.36;64.21;98017.70;106707;1278;25306;-82
2023/05/22 04:51:31;;;;;;;8.50;5.10;;;;;;;13.48;63.99;98017.61;106772;1278;23918;-89
2023/05/22 04:54:00;;;;;;;5.80;4.40;;;;;;;13.60;63.72;98020.35;106677;1278;22592;-81
2023/05/22 04:56:29;;;;;;;13.00;5.10;;;;;;;13.72;63.59;98022.48;106635;1278;24218;-81
2023/05/22 04:59:07;;;;;;;9.60;4.90;;;;;;;13.85;63.28;98025.62;106766;1275;25338;-88
2023/05/22 05:01:37;;;;;;;7.20;4.90;;;;;;;13.98;62.96;98025.29;106817;1278;22810;-88
2023/05/22 05:04:06;;;;;;;7.30;4.50;;;;;;;14.11;62.48;98021.46;106708;1278;24254;-90
2023/05/22 05:06:34;;;;;;;7.20;4.50;;;;;;;14.23;62.24;98020.51;106693;1278;25274;-86
2023/05/22 05:09:04;;;;;;;7.50;5.10;;;;;;;14.35;61.74;98024.93;106703;1278;25308;-87
2023/05/22 05:11:32;;;;;;;8.70;5.10;;;;;;;14.48;61.70;98021.23;106664;1278;22660;-84
2023/05/22 05:14:00;;;;;;;8.30;4.40;;;;;;;14.60;61.42;98018.43;107263;1275;25513;-87
2023/05/22 05:16:29;;;;;;;12.40;5.60;;;;;;;14.72;61.37;98019.80;106881;1275;25404;-88
2023/05/22 05:18:57;;;;;;;12.70;5.70;;;;;;;14.85;61.14;98021.98;106865;1277;22535;-88
2023/05/22 05:21:26;;;;;;;8.50;5.10;;;;;;;14.97;60.89;98024.34;106822;1277;22673;-84
2023/05/22 05:23:57;;;;;;;13.60;5.00;;;;;;;15.08;60.49;98028.14;106932;1277;25344;-87
2023/05/22 05:26:26;;;;;;;9.30;4.40;;;;;;;15.18;60.11;98032.34;106869;1266;22612;-88
2023/05/22 05:28:55;;;;;;;9.80;5.10;;;;;;;15.28;59.72;98031.56;106778;1278;22566;-88
2023/05/22 05:31:31;;;;;;;12.40;5.70;;;;;;;15.41;59.47;98033.58;106897;1277;24250;-86
2023/05/22 05:34:26;;;;;;;10.00;5.50;;;;;;;15.50;58.99;98032.91;106799;1277;23652;-90
2023/05/22 05:37:05;;;;;;;10.80;5.30;;;;;;;15.61;58.75;98030.64;107238;1277;22616;-92
2023/05/22 05:39:33;;;;;;;14.50;4.80;;;;;;;15.69;58.39;98033.02;106878;1277;22634;-87
2023/05/22 05:42:03;;;;;;;12.40;4.90;;;;;;;15.80;58.58;98033.17;106738;1277;22577;-87
2023/05/22 05:44:32;;;;;;;10.40;4.80;;;;;;;15.88;57.87;98033.05;106992;1277;22546;-87
2023/05/22 05:47:00;;;;;;;7.40;5.20;;;;;;;15.95;57.87;98030.48;106865;1277;22595;-89
2023/05/22 05:49:29;;;;;;;8.30;5.80;;;;;;;16.02;57.63;98034.16;106693;1277;23306;-88
2023/05/22 05:51:58;;;;;;;8.70;5.10;;;;;;;16.11;57.37;98034.27;106626;1277;182475;-88
2023/05/22 05:54:27;;;;;;;10.60;5.50;;;;;;;16.20;57.12;98036.77;106762;1278;23773;-89
2023/05/22 05:57:00;;;;;;;12.70;5.00;;;;;;;16.29;57.13;98033.39;106796;1277;22535;-91
2023/05/22 05:59:30;;;;;;;8.00;4.70;;;;;;;16.38;56.92;98037.38;106695;1277;22535;-91
2023/05/22 06:02:21;;;;;;;8.40;4.50;;;;;;;16.52;56.85;98039.34;106810;1277;24193;-90
2023/05/22 06:04:52;;;;;;;9.80;4.80;;;;;;;16.60;56.24;98035.04;106723;1277;23811;-90
2023/05/22 06:07:21;;;;;;;9.30;4.80;;;;;;;16.67;56.14;98034.96;106798;1277;22580;-90
2023/05/22 06:09:52;;;;;;;9.40;4.70;;;;;;;16.74;55.83;98035.70;106757;1277;25324;-88
2023/05/22 06:12:27;;;;;;;10.30;4.40;;;;;;;16.82;55.97;98030.63;106823;1277;22537;-89
2023/05/22 06:14:55;;;;;;;11.60;5.20;;;;;;;16.95;56.09;98032.08;106870;1277;22683;-88
2023/05/22 06:17:23;;;;;;;14.10;4.90;;;;;;;17.06;55.61;98033.55;107088;1277;22564;-87
2023/05/22 06:19:51;;;;;;;9.00;5.00;;;;;;;17.12;55.07;98035.54;106782;1277;22540;-93
2023/05/22 06:22:20;;;;;;;8.20;5.70;;;;;;;17.18;55.03;98037.04;106775;1266;22528;-88
2023/05/22 06:24:49;;;;;;;12.20;7.10;;;;;;;17.24;54.85;98031.90;106696;1265;26961;-90
2023/05/22 06:27:23;;;;;;;17.10;6.60;;;;;;;17.32;54.21;98029.95;107081;1277;24343;-88
2023/05/22 06:29:51;;;;;;;16.30;5.90;;;;;;;17.39;54.51;98030.89;107343;1277;22557;-92
2023/05/22 06:32:20;;;;;;;11.30;4.90;;;;;;;17.49;53.83;98027.77;106721;1277;25284;-89
2023/05/22 06:34:48;;;;;;;14.00;5.40;;;;;;;17.57;53.44;98026.23;106968;1270;22651;-89
2023/05/22 06:37:17;;;;;;;9.80;5.70;;;;;;;17.65;53.35;98028.65;106720;1277;22626;-89
2023/05/22 06:39:47;;;;;;;10.50;5.70;;;;;;;17.74;53.10;98025.27;107197;1270;22530;-90
2023/05/22 06:42:22;;;;;;;9.50;5.20;;;;;;;17.84;52.75;98023.20;106866;1277;23142;-88
2023/05/22 06:45:19;;;;;;;10.30;4.80;;;;;;;17.89;52.45;98025.16;106821;1277;23437;-87
2023/05/22 06:48:00;;;;;;;15.40;6.10;;;;;;;17.94;52.65;98022.65;106882;1265;24240;-85
2023/05/22 06:50:30;;;;;;;11.70;5.10;;;;;;;17.98;52.39;98024.02;107098;1277;22674;-87
2023/05/22 06:52:58;;;;;;;11.40;7.50;;;;;;;17.98;52.51;98026.27;106814;1276;22547;-85
2023/05/22 06:55:27;;;;;;;9.30;7.80;;;;;;;17.95;51.63;98020.80;106921;1277;22606;-87
2023/05/22 06:58:03;;;;;;;9.80;6.50;;;;;;;17.92;51.72;98025.92;106857;1277;25459;-87
2023/05/22 07:00:34;;;;;;;10.00;6.10;;;;;;;17.95;51.93;98022.07;107021;1276;22541;-88
2023/05/22 07:03:10;;;;;;;12.00;5.40;;;;;;;18.07;52.07;98022.71;106821;1277;22771;-88
2023/05/22 07:06:00;;;;;;;7.20;4.90;;;;;;;18.15;51.22;98024.98;107372;1278;22529;-89
2023/05/22 07:08:29;;;;;;;12.60;6.70;;;;;;;18.22;51.27;98026.02;109197;1277;22479;-88
2023/05/22 07:10:57;;;;;;;11.20;4.40;;;;;;;18.30;50.88;98029.63;108625;1277;25316;-88
2023/05/22 07:13:25;;;;;;;9.70;5.40;;;;;;;18.33;50.18;98024.10;106754;1277;24445;-89
2023/05/22 07:15:54;;;;;;;9.60;5.90;;;;;;;18.38;50.27;98020.65;106800;1278;22569;-88
2023/05/22 07:18:22;;;;;;;9.90;6.00;;;;;;;18.47;50.38;98019.55;106817;1278;22626;-88
2023/05/22 07:20:50;;;;;;;11.10;5.90;;;;;;;18.58;49.38;98021.04;106676;1263;22849;-88
2023/05/22 07:23:20;;;;;;;11.40;5.60;;;;;;;18.65;48.53;98023.86;106770;1277;22791;-88
2023/05/22 07:25:49;;;;;;;16.50;6.00;;;;;;;18.71;48.79;98024.59;106841;1278;22598;-89
2023/05/22 07:28:19;;;;;;;9.00;5.30;;;;;;;18.82;48.69;98021.87;106752;1277;25315;-88
2023/05/22 07:30:56;;;;;;;12.10;5.30;;;;;;;18.96;48.51;98024.05;106685;1277;22546;-88
2023/05/22 07:33:24;;;;;;;10.60;5.30;;;;;;;19.07;47.73;98022.67;106719;1277;25277;-89
2023/05/22 07:35:53;;;;;;;14.20;6.50;;;;;;;19.19;47.75;98019.36;106698;1277;22531;-88
2023/05/22 07:38:21;;;;;;;8.80;5.10;;;;;;;19.28;47.84;98019.84;106691;1277;24285;-89
2023/05/22 07:40:56;;;;;;;7.80;4.60;;;;;;;19.43;47.63;98017.45;106840;1277;22572;-88
2023/05/22 07:43:24;;;;;;;18.30;6.90;;;;;;;19.56;46.86;98020.17;106854;1278;22938;-88
2023/05/22 07:45:53;;;;;;;7.40;5.00;;;;;;;19.65;46.86;98021.35;106952;1277;25389;-89
2023/05/22 07:48:24;;;;;;;8.10;4.80;;;;;;;19.74;45.88;98022.05;106751;1277;22528;-89
2023/05/22 07:50:52;;;;;;;16.50;7.00;;;;;;;19.74;45.76;98027.98;106686;1278;22573;-89
2023/05/22 07:53:20;;;;;;;7.70;4.80;;;;;;;19.80;45.66;98024.52;106799;1277;22639;-89
2023/05/22 07:55:50;;;;;;;12.10;4.90;;;;;;;19.85;45.98;98026.52;106675;1277;22644;-87
2023/05/22 07:58:18;;;;;;;7.40;4.60;;;;;;;19.96;45.48;98031.84;106788;1277;24046;-88
2023/05/22 08:00:47;;;;;;;13.00;4.50;;;;;;;20.07;45.58;98028.22;106792;1276;22582;-88
2023/05/22 08:03:15;;;;;;;13.20;4.70;;;;;;;20.15;45.47;98033.02;106747;1277;22578;-88
2023/05/22 08:05:45;;;;;;;10.90;5.60;;;;;;;20.19;44.67;98030.52;106782;1277;22547;-88
2023/05/22 08:08:13;;;;;;;8.20;3.80;;;;;;;20.27;44.78;98035.21;106673;1277;25393;-88
2023/05/22 08:10:41;;;;;;;10.90;4.50;;;;;;;20.34;44.03;98034.44;106710;1277;24085;-88
2023/05/22 08:13:29;;;;;;;14.50;5.20;;;;;;;20.37;43.76;98027.92;106856;1277;22652;-87
2023/05/22 08:15:57;;;;;;;6.90;3.90;;;;;;;20.36;42.31;98030.02;106831;1277;22523;-88
2023/05/22 08:18:28;;;;;;;12.30;4.30;;;;;;;20.30;41.08;98024.27;106717;1277;24253;-89
2023/05/22 08:20:57;;;;;;;10.10;4.30;;;;;;;20.28;41.90;98022.34;106928;1277;22744;-88
2023/05/22 08:23:25;;;;;;;7.00;4.00;;;;;;;20.36;42.11;98029.14;106992;1276;22674;-88
2023/05/22 08:25:52;;;;;;;5.00;3.80;;;;;;;20.38;42.10;98028.03;106809;1277;26597;-88
2023/05/22 08:28:21;;;;;;;6.60;4.10;;;;;;;20.35;41.47;98028.34;106831;1277;22562;-89
2023/05/22 08:30:49;;;;;;;10.00;4.30;;;;;;;20.24;40.44;98025.23;106841;1277;22548;-90
2023/05/22 08:33:18;;;;;;;8.10;3.90;;;;;;;20.18;39.55;98024.88;106735;1277;22551;-87
2023/05/22 08:35:46;;;;;;;8.50;4.10;;;;;;;20.15;39.92;98026.31;106696;1277;22648;-88
2023/05/22 08:38:15;;;;;;;9.50;4.00;;;;;;;20.18;39.30;98024.48;106885;1254;22620;-88
2023/05/22 08:40:48;;;;;;;8.10;3.90;;;;;;;20.15;39.32;98024.10;106846;1277;22823;-91
2023/05/22 08:43:19;;;;;;;13.80;4.00;;;;;;;20.17;39.24;98024.54;107183;1277;21851;-88
2023/05/22 08:45:54;;;;;;;7.80;3.80;;;;;;;20.23;38.83;98020.59;107801;1277;22544;-87
2023/05/22 08:48:23;;;;;;;7.90;3.70;;;;;;;20.21;38.49;98022.49;108323;1277;22689;-88
2023/05/22 08:50:57;;;;;;;13.50;4.00;;;;;;;20.26;38.56;98021.13;108234;1277;24055;-88
2023/05/22 08:53:34;;;;;;;7.60;3.80;;;;;;;20.36;38.50;98023.91;106902;1277;23113;-88
2023/05/22 08:56:04;;;;;;;9.60;4.10;;;;;;;20.42;38.68;98022.77;106910;1277;24354;-91
2023/05/22 08:58:35;;;;;;;7.50;3.30;;;;;;;20.46;39.06;98019.02;107014;1277;22518;-91
2023/05/22 09:01:05;;;;;;;10.70;3.90;;;;;;;20.57;39.14;98017.63;106835;1277;22521;-88
2023/05/22 09:03:35;;;;;;;9.30;4.20;;;;;;;20.70;38.85;98016.14;106773;1277;22529;-88
2023/05/22 09:06:09;;;;;;;12.20;3.80;;;;;;;20.83;38.98;98015.77;106854;1277;25463;-89
2023/05/22 09:08:37;;;;;;;10.50;3.60;;;;;;;21.02;39.29;98017.12;106898;1277;24265;-88
2023/05/22 09:11:05;;;;;;;12.70;4.40;;;;;;;21.13;38.40;98012.69;106790;1277;22649;-88
2023/05/22 09:13:33;;;;;;;10.00;3.70;;;;;;;21.16;38.75;98015.56;106805;1277;22790;-88
2023/05/22 09:16:10;;;;;;;7.00;3.90;;;;;;;21.23;38.49;98011.06;106778;1277;22582;-88
2023/05/22 09:18:40;;;;;;;8.90;3.90;;;;;;;21.36;38.64;98006.04;106764;1277;22544;-88
2023/05/22 09:21:09;;;;;;;5.90;3.50;;;;;;;21.48;38.64;98008.83;106905;1274;22602;-88
2023/05/22 09:24:00;;;;;;;7.10;3.80;;;;;;;21.63;38.78;98005.21;106838;1277;24480;-89
2023/05/22 09:26:29;;;;;;;7.80;4.00;;;;;;;21.74;38.66;98002.86;106868;1277;25335;-88
2023/05/22 09:28:58;;;;;;;9.90;3.80;;;;;;;21.85;37.77;97998.64;107786;1277;22570;-89
2023/05/22 09:31:28;;;;;;;10.40;3.50;;;;;;;21.87;37.54;97999.20;108989;1277;25034;-89
2023/05/22 09:33:57;;;;;;;8.90;3.60;;;;;;;21.86;37.90;98000.53;107903;1277;25253;-89
2023/05/22 09:36:32;;;;;;;8.90;3.90;;;;;;;21.88;38.25;98000.79;106909;1277;23029;-88
2023/05/22 09:39:02;;;;;;;6.60;3.80;;;;;;;21.94;38.07;97995.77;106635;1277;22524;-89
2023/05/22 09:41:36;;;;;;;7.20;3.70;;;;;;;21.96;37.88;97995.17;106889;1277;22544;-89
2023/05/22 09:44:14;;;;;;;5.30;3.40;;;;;;;22.07;37.74;97994.07;107023;1277;22529;-88
2023/05/22 09:46:45;;;;;;;10.90;3.80;;;;;;;22.02;36.99;97990.87;106826;1277;25338;-88
2023/05/22 09:49:13;;;;;;;8.00;3.40;;;;;;;21.99;37.31;97996.55;106888;1277;22531;-89
2023/05/22 09:51:47;;;;;;;9.00;3.50;;;;;;;22.07;37.33;97995.33;106855;1277;26211;-89
2023/05/22 09:54:18;;;;;;;5.90;3.30;;;;;;;22.07;36.75;97988.27;106837;1277;22567;-88
2023/05/22 09:56:48;;;;;;;9.20;3.60;;;;;;;22.07;37.31;97987.88;106883;1277;22691;-89
2023/05/22 09:59:25;;;;;;;6.10;3.60;;;;;;;22.15;37.19;97984.30;106814;1277;22663;-89
2023/05/22 10:01:54;;;;;;;6.70;3.60;;;;;;;22.19;37.16;97978.95;106676;1277;22613;-89
2023/05/22 10:04:23;;;;;;;11.50;4.20;;;;;;;22.29;37.00;97974.20;106775;1274;22531;-89
2023/05/22 10:06:57;;;;;;;8.60;4.20;;;;;;;22.37;36.60;97971.25;106719;1277;22518;-88
2023/05/22 10:09:29;;;;;;;7.50;3.30;;;;;;;22.46;36.64;97972.67;106896;1277;22598;-88
2023/05/22 10:12:04;;;;;;;4.20;3.30;;;;;;;22.52;36.88;97974.95;106946;1277;24654;-88
2023/05/22 10:14:35;;;;;;;5.90;3.30;;;;;;;22.54;36.02;97975.43;106822;1277;25284;-88
2023/05/22 10:17:05;;;;;;;5.70;3.60;;;;;;;22.51;36.51;97970.39;106857;1277;24215;-89
2023/05/22 10:19:35;;;;;;;13.10;3.50;;;;;;;22.62;36.47;97971.61;106849;1277;24261;-89
2023/05/22 10:22:13;;;;;;;8.10;3.80;;;;;;;22.76;36.46;97975.50;106849;1277;24473;-89
2023/05/22 10:24:42;;;;;;;6.70;3.70;;;;;;;22.88;36.17;97973.04;106768;1277;24160;-88
2023/05/22 10:27:10;;;;;;;5.20;3.40;;;;;;;22.99;35.67;97974.09;106782;1277;22535;-89
2023/05/22 10:30:07;;;;;;;10.20;3.50;;;;;;;23.01;35.74;97975.77;106716;1277;25483;-89
2023/05/22 10:32:44;;;;;;;8.10;3.60;;;;;;;22.93;36.16;97978.64;106796;1277;25404;-89
2023/05/22 10:35:20;;;;;;;10.20;3.80;;;;;;;22.95;36.35;97980.02;108350;1277;22649;-90
2023/05/22 10:37:55;;;;;;;11.10;3.50;;;;;;;23.04;37.07;97981.29;108742;1277;22561;-88
2023/05/22 10:40:31;;;;;;;6.50;3.30;;;;;;;23.24;37.09;97978.55;107219;1277;25326;-89
2023/05/22 10:43:01;;;;;;;6.20;3.50;;;;;;;23.44;37.06;97975.63;106852;1277;22558;-88
2023/05/22 10:45:30;;;;;;;9.90;4.10;;;;;;;23.58;37.07;97972.67;106900;1277;22531;-89
2023/05/22 10:48:11;;;;;;;8.70;3.40;;;;;;;23.70;36.62;97964.97;106680;1277;25308;-88
2023/05/22 10:50:51;;;;;;;8.10;3.60;;;;;;;23.74;36.27;97965.79;107089;1277;22685;-88
2023/05/22 10:53:30;;;;;;;5.40;3.20;;;;;;;23.68;35.62;97968.88;107026;1277;24545;-90
2023/05/22 10:56:07;;;;;;;12.60;3.70;;;;;;;23.63;36.34;97960.59;107375;1277;25485;-89
2023/05/22 10:58:36;;;;;;;6.20;3.20;;;;;;;23.76;36.33;97958.96;106912;1277;22569;-90
2023/05/22 11:01:14;;;;;;;38.00;6.00;;;;;;;23.89;35.85;97957.93;106842;1277;22551;-90
2023/05/22 11:03:59;;;;;;;9.70;3.40;;;;;;;23.97;36.02;97959.16;106971;1277;22524;-90
2023/05/22 11:06:40;;;;;;;6.80;3.80;;;;;;;24.11;35.53;97951.98;107093;1277;22568;-90
2023/05/22 11:09:28;;;;;;;5.90;3.40;;;;;;;24.18;35.64;97951.61;107128;1270;22558;-89
2023/05/22 11:12:29;;;;;;;9.90;3.10;;;;;;;24.21;34.64;97945.25;107138;1277;24222;-89
2023/05/22 11:15:09;;;;;;;8.00;3.10;;;;;;;24.21;34.77;97948.40;106957;1277;22538;-88
2023/05/22 11:17:43;;;;;;;5.20;3.30;;;;;;;24.21;34.39;97948.33;107273;1277;24300;-89
2023/05/22 11:20:24;;;;;;;6.70;3.20;;;;;;;24.23;34.79;97941.96;107127;1277;25398;-89
2023/05/22 11:23:02;;;;;;;7.80;3.20;;;;;;;24.39;34.64;97940.27;107017;1267;24333;-89
2023/05/22 11:25:32;;;;;;;5.90;3.20;;;;;;;24.49;34.74;97937.10;107391;1277;22540;-88
2023/05/22 11:28:05;;;;;;;5.90;3.10;;;;;;;24.61;34.78;97931.94;107787;1277;22572;-88
2023/05/22 11:30:38;;;;;;;5.40;3.30;;;;;;;24.66;34.44;97932.41;107384;1277;22534;-88
2023/05/22 11:33:32;;;;;;;6.70;3.40;;;;;;;24.79;34.25;97932.58;107310;1277;22515;-89
2023/05/22 11:36:00;;;;;;;8.00;3.00;;;;;;;24.91;34.09;97935.67;108149;1277;22523;-89
2023/05/22 11:38:29;;;;;;;11.00;3.40;;;;;;;24.98;33.68;97933.86;107055;1277;22785;-89
2023/05/22 11:40:57;;;;;;;7.40;3.50;;;;;;;24.89;32.91;97930.46;107180;1277;24164;-89
2023/05/22 11:43:52;;;;;;;6.00;3.50;;;;;;;24.57;33.33;97933.19;107379;1277;24947;-89